Time;durP1;ratioP1;P1;durP2;ratioP2;P2;SDS_P1;SDS_P2;PMS_P1;PMS_P2;Temp;Humidity;BMP_temperature;BMP_pressure;BME280_temperature;BME280_humidity;BME280_pressure;Samples;Min_cycle;Max_cycle;Signal;HPM_P1;HPM_P2
2022/11/26 00:00:01;;;;;;;5.85;5.22;;;;;;;;;;5096452;27;20388;-84
2022/11/26 00:02:29;;;;;;;5.57;5.13;;;;;;;;;;5120388;27;20745;-84
2022/11/26 00:04:56;;;;;;;6.22;5.60;;;;;;;;;;5112985;27;20426;-84
2022/11/26 00:07:26;;;;;;;7.40;6.70;;;;;;;;;;5116455;27;20460;-83
2022/11/26 00:09:53;;;;;;;5.85;5.22;;;;;;;;;;5120381;27;20391;-83
2022/11/26 00:12:20;;;;;;;5.40;4.90;;;;;;;;;;5115627;27;20391;-84
2022/11/26 00:14:47;;;;;;;5.75;5.00;;;;;;;;;;5095297;28;20907;-83
2022/11/26 00:17:14;;;;;;;6.63;5.25;;;;;;;;;;5096118;28;20442;-84
2022/11/26 00:19:40;;;;;;;6.88;6.18;;;;;;;;;;5094160;28;20861;-84
2022/11/26 00:22:14;;;;;;;5.53;5.03;;;;;;;;;;5124757;27;20397;-83
2022/11/26 00:24:40;;;;;;;5.78;5.18;;;;;;;;;;5118254;27;20883;-83
2022/11/26 00:27:10;;;;;;;5.30;4.80;;;;;;;;;;5136940;27;20841;-82
2022/11/26 00:29:36;;;;;;;5.70;5.15;;;;;;;;;;5134165;27;20416;-81
2022/11/26 00:32:02;;;;;;;5.22;4.72;;;;;;;;;;5134167;27;20777;-84
2022/11/26 00:34:28;;;;;;;4.93;4.45;;;;;;;;;;5130115;27;20372;-83
2022/11/26 00:36:54;;;;;;;5.22;4.72;;;;;;;;;;5113046;28;20407;-84
2022/11/26 00:39:22;;;;;;;5.68;5.15;;;;;;;;;;5128947;27;20438;-83
2022/11/26 00:41:49;;;;;;;7.35;5.20;;;;;;;;;;5119887;27;20374;-84
2022/11/26 00:44:22;;;;;;;6.47;4.88;;;;;;;;;;5133803;27;20371;-84
2022/11/26 00:46:48;;;;;;;6.23;5.63;;;;;;;;;;5070833;27;1775661;-83
2022/11/26 00:49:15;;;;;;;5.60;4.70;;;;;;;;;;5134525;27;20747;-84
2022/11/26 00:51:41;;;;;;;5.47;4.53;;;;;;;;;;5128999;27;20379;-83
2022/11/26 00:54:09;;;;;;;5.30;4.80;;;;;;;;;;5115669;27;20384;-84
2022/11/26 00:56:36;;;;;;;5.70;4.07;;;;;;;;;;5130623;27;20402;-83
2022/11/26 00:59:02;;;;;;;6.60;4.90;;;;;;;;;;5126250;27;20432;-83
2022/11/26 01:01:28;;;;;;;5.40;4.90;;;;;;;;;;5095628;27;20376;-84
2022/11/26 01:03:54;;;;;;;5.43;4.75;;;;;;;;;;5114848;27;20425;-82
2022/11/26 01:06:23;;;;;;;5.25;4.75;;;;;;;;;;5095048;28;20944;-82
2022/11/26 01:08:49;;;;;;;5.18;4.60;;;;;;;;;;5121277;27;20392;-82
2022/11/26 01:11:17;;;;;;;5.40;4.50;;;;;;;;;;5112288;27;20379;-82
2022/11/26 01:13:43;;;;;;;5.80;4.63;;;;;;;;;;5114234;27;20378;-82
2022/11/26 01:16:19;;;;;;;11.98;7.90;;;;;;;;;;5114609;27;20407;-82
2022/11/26 01:18:46;;;;;;;6.15;5.28;;;;;;;;;;5119220;27;20360;-82
2022/11/26 01:21:12;;;;;;;5.15;4.60;;;;;;;;;;5123002;27;20372;-82
2022/11/26 01:23:38;;;;;;;5.60;4.45;;;;;;;;;;5123826;27;20403;-82
2022/11/26 01:26:04;;;;;;;5.03;4.25;;;;;;;;;;5124486;27;20374;-83
2022/11/26 01:28:30;;;;;;;5.10;4.40;;;;;;;;;;5120553;27;20427;-82
2022/11/26 01:30:56;;;;;;;4.93;4.30;;;;;;;;;;5109938;27;20396;-82
2022/11/26 01:33:22;;;;;;;6.80;4.57;;;;;;;;;;5113096;27;20394;-83
2022/11/26 01:35:48;;;;;;;5.00;4.50;;;;;;;;;;5113148;27;20825;-84
2022/11/26 01:38:15;;;;;;;4.40;4.00;;;;;;;;;;5117691;27;20398;-84
2022/11/26 01:40:50;;;;;;;5.57;4.57;;;;;;;;;;5112903;27;20373;-83
2022/11/26 01:43:25;;;;;;;5.72;4.68;;;;;;;;;;5115066;27;20881;-82
2022/11/26 01:45:52;;;;;;;8.15;4.60;;;;;;;;;;5113189;27;20392;-82
2022/11/26 01:48:29;;;;;;;5.47;4.95;;;;;;;;;;5114446;27;20387;-82
2022/11/26 01:51:02;;;;;;;14.82;10.00;;;;;;;;;;5112650;27;20368;-82
2022/11/26 01:53:30;;;;;;;17.67;13.07;;;;;;;;;;5112842;27;20767;-81
2022/11/26 01:56:04;;;;;;;14.20;11.45;;;;;;;;;;5111800;27;20491;-83
2022/11/26 01:58:37;;;;;;;12.18;10.88;;;;;;;;;;5117107;27;20376;-84
2022/11/26 02:01:03;;;;;;;11.90;9.63;;;;;;;;;;5113718;27;20423;-83
2022/11/26 02:03:32;;;;;;;9.40;8.48;;;;;;;;;;5115624;27;20748;-83
2022/11/26 02:06:04;;;;;;;10.13;8.40;;;;;;;;;;5121938;27;20411;-83
2022/11/26 02:08:31;;;;;;;8.77;7.97;;;;;;;;;;5123194;27;20510;-84
2022/11/26 02:10:57;;;;;;;9.48;8.32;;;;;;;;;;5133270;27;20374;-83
2022/11/26 02:13:23;;;;;;;9.95;8.95;;;;;;;;;;5133235;27;20374;-84
2022/11/26 02:15:54;;;;;;;21.02;15.80;;;;;;;;;;5114886;28;20394;-84
2022/11/26 02:18:21;;;;;;;15.40;13.60;;;;;;;;;;5133200;27;20800;-83
2022/11/26 02:20:50;;;;;;;15.55;13.90;;;;;;;;;;5132989;27;20370;-83
2022/11/26 02:23:16;;;;;;;20.45;14.50;;;;;;;;;;5132951;27;20493;-84
2022/11/26 02:25:51;;;;;;;15.25;13.65;;;;;;;;;;5133214;27;20417;-83
2022/11/26 02:28:20;;;;;;;15.65;13.75;;;;;;;;;;5132718;27;20378;-83
2022/11/26 02:30:56;;;;;;;18.50;13.95;;;;;;;;;;5114225;28;20885;-84
2022/11/26 02:33:36;;;;;;;20.42;15.48;;;;;;;;;;5135736;27;20453;-83
2022/11/26 02:36:07;;;;;;;16.75;13.48;;;;;;;;;;5135574;27;20905;-84
2022/11/26 02:38:35;;;;;;;22.93;15.77;;;;;;;;;;5130282;27;20409;-83
2022/11/26 02:41:01;;;;;;;20.58;15.90;;;;;;;;;;5133900;27;20511;-84
2022/11/26 02:43:28;;;;;;;23.35;16.38;;;;;;;;;;5133424;27;20390;-84
2022/11/26 02:45:55;;;;;;;19.42;15.30;;;;;;;;;;5140242;27;20795;-82
2022/11/26 02:48:24;;;;;;;21.70;15.90;;;;;;;;;;5138602;27;20435;-84
2022/11/26 02:50:52;;;;;;;27.63;18.25;;;;;;;;;;5134705;27;20427;-84
2022/11/26 02:53:20;;;;;;;34.67;19.83;;;;;;;;;;5131874;27;20481;-84
2022/11/26 02:55:51;;;;;;;34.88;20.08;;;;;;;;;;5134173;28;20406;-83
2022/11/26 02:58:18;;;;;;;44.72;22.52;;;;;;;;;;5133920;27;20378;-84
2022/11/26 03:00:46;;;;;;;44.75;21.77;;;;;;;;;;5136145;27;20369;-84
2022/11/26 03:03:22;;;;;;;44.10;22.67;;;;;;;;;;5136029;27;20490;-84
2022/11/26 03:05:50;;;;;;;46.35;22.35;;;;;;;;;;5136711;27;20951;-84
2022/11/26 03:08:16;;;;;;;32.30;20.70;;;;;;;;;;5127451;27;20385;-84
2022/11/26 03:10:42;;;;;;;26.08;17.65;;;;;;;;;;5117497;27;20391;-84
2022/11/26 03:13:08;;;;;;;21.20;16.35;;;;;;;;;;5136379;27;20432;-84
2022/11/26 03:15:34;;;;;;;17.27;14.82;;;;;;;;;;5118105;27;20399;-84
2022/11/26 03:18:00;;;;;;;15.77;12.77;;;;;;;;;;5136258;27;20375;-84
2022/11/26 03:20:26;;;;;;;16.92;12.98;;;;;;;;;;5136738;27;20458;-84
2022/11/26 03:22:52;;;;;;;15.00;11.25;;;;;;;;;;5135405;27;20842;-83
2022/11/26 03:25:18;;;;;;;13.00;11.05;;;;;;;;;;5131877;27;20504;-84
2022/11/26 03:27:44;;;;;;;14.43;10.97;;;;;;;;;;5124863;27;20451;-83
2022/11/26 03:30:10;;;;;;;12.43;10.80;;;;;;;;;;5123168;27;20879;-84
2022/11/26 03:32:36;;;;;;;15.82;12.77;;;;;;;;;;5115596;27;20469;-85
2022/11/26 03:35:03;;;;;;;17.40;12.68;;;;;;;;;;5136318;27;20531;-84
2022/11/26 03:37:29;;;;;;;17.90;13.57;;;;;;;;;;5136273;27;20382;-84
2022/11/26 03:39:55;;;;;;;14.18;11.90;;;;;;;;;;5134809;27;20370;-84
2022/11/26 03:42:21;;;;;;;15.68;11.80;;;;;;;;;;5135787;27;20450;-84
2022/11/26 03:44:47;;;;;;;13.17;11.53;;;;;;;;;;5134337;27;20985;-84
2022/11/26 03:47:13;;;;;;;15.60;11.32;;;;;;;;;;5135328;27;20447;-84
2022/11/26 03:49:39;;;;;;;13.77;10.30;;;;;;;;;;5135716;27;20406;-84
2022/11/26 03:52:05;;;;;;;13.07;9.23;;;;;;;;;;5135710;27;20400;-84
2022/11/26 03:54:31;;;;;;;13.20;9.50;;;;;;;;;;5135439;27;20371;-84
2022/11/26 03:56:57;;;;;;;12.50;8.70;;;;;;;;;;5135299;27;20402;-83
2022/11/26 03:59:23;;;;;;;14.23;8.68;;;;;;;;;;5135323;27;20387;-84
2022/11/26 04:01:49;;;;;;;12.27;8.05;;;;;;;;;;5133915;27;20378;-84
2022/11/26 04:04:15;;;;;;;12.23;8.18;;;;;;;;;;5135110;27;20374;-82
2022/11/26 04:06:41;;;;;;;11.45;7.85;;;;;;;;;;5135303;27;20848;-82
2022/11/26 04:09:07;;;;;;;11.93;7.65;;;;;;;;;;5126152;27;20420;-82
2022/11/26 04:11:33;;;;;;;10.70;7.22;;;;;;;;;;5134951;27;20386;-83
2022/11/26 04:13:59;;;;;;;10.35;7.30;;;;;;;;;;5116544;27;20871;-84
2022/11/26 04:16:26;;;;;;;12.68;7.78;;;;;;;;;;5134915;27;20763;-82
2022/11/26 04:18:52;;;;;;;12.80;7.63;;;;;;;;;;5134143;27;20394;-82
2022/11/26 04:21:18;;;;;;;10.95;7.18;;;;;;;;;;5115940;27;20920;-82
2022/11/26 04:23:44;;;;;;;13.90;7.67;;;;;;;;;;5134208;27;20396;-83
2022/11/26 04:26:10;;;;;;;11.85;7.30;;;;;;;;;;5120635;27;20429;-84
2022/11/26 04:28:36;;;;;;;10.63;7.20;;;;;;;;;;5136092;27;20377;-83
2022/11/26 04:31:02;;;;;;;10.45;6.88;;;;;;;;;;5130767;27;20406;-84
2022/11/26 04:33:28;;;;;;;10.30;6.60;;;;;;;;;;5135196;27;20375;-82
2022/11/26 04:35:54;;;;;;;10.18;6.68;;;;;;;;;;5135076;27;20394;-83
2022/11/26 04:38:20;;;;;;;9.05;6.43;;;;;;;;;;5134846;27;20751;-82
2022/11/26 04:40:47;;;;;;;9.55;6.32;;;;;;;;;;5135207;27;20378;-83
2022/11/26 04:43:13;;;;;;;9.18;6.13;;;;;;;;;;5113225;27;20428;-85
2022/11/26 04:45:39;;;;;;;10.43;7.45;;;;;;;;;;5121314;27;20392;-82
2022/11/26 04:48:05;;;;;;;9.30;6.90;;;;;;;;;;5130599;27;20461;-84
2022/11/26 04:50:31;;;;;;;9.15;6.68;;;;;;;;;;5134423;27;20383;-83
2022/11/26 04:52:57;;;;;;;9.50;6.72;;;;;;;;;;5132578;27;20378;-83
2022/11/26 04:55:23;;;;;;;9.52;6.70;;;;;;;;;;5130852;27;20755;-84
2022/11/26 04:57:49;;;;;;;10.50;7.05;;;;;;;;;;5115238;27;20387;-82
2022/11/26 05:00:16;;;;;;;10.67;6.77;;;;;;;;;;5115961;27;20478;-83
2022/11/26 05:02:42;;;;;;;9.48;6.90;;;;;;;;;;5116129;27;20404;-83
2022/11/26 05:05:08;;;;;;;11.68;6.93;;;;;;;;;;5134351;27;20427;-84
2022/11/26 05:07:34;;;;;;;10.70;7.25;;;;;;;;;;5131085;27;20391;-84
2022/11/26 05:10:01;;;;;;;10.40;7.75;;;;;;;;;;5128915;27;20383;-84
2022/11/26 05:12:27;;;;;;;12.45;7.75;;;;;;;;;;5134226;27;20374;-84
2022/11/26 05:14:53;;;;;;;12.30;7.78;;;;;;;;;;5134071;27;20371;-84
2022/11/26 05:17:19;;;;;;;12.00;8.57;;;;;;;;;;5134115;27;20870;-84
2022/11/26 05:19:45;;;;;;;11.23;8.48;;;;;;;;;;5134118;27;20374;-84
2022/11/26 05:22:11;;;;;;;10.97;7.77;;;;;;;;;;5133392;27;20370;-84
2022/11/26 05:24:37;;;;;;;8.85;6.95;;;;;;;;;;5133705;27;20728;-84
2022/11/26 05:27:03;;;;;;;11.25;7.60;;;;;;;;;;5122018;27;20387;-84
2022/11/26 05:29:30;;;;;;;10.07;7.68;;;;;;;;;;5117141;27;20402;-84
2022/11/26 05:31:56;;;;;;;9.57;7.40;;;;;;;;;;5127168;27;20872;-84
2022/11/26 05:34:22;;;;;;;9.57;7.70;;;;;;;;;;5094974;27;20396;-84
2022/11/26 05:36:48;;;;;;;11.60;8.03;;;;;;;;;;5128831;27;20505;-84
2022/11/26 05:39:15;;;;;;;11.77;8.15;;;;;;;;;;5131379;27;20381;-84
2022/11/26 05:41:41;;;;;;;12.13;9.30;;;;;;;;;;5113809;27;20372;-84
2022/11/26 05:44:07;;;;;;;11.67;9.30;;;;;;;;;;5113419;27;20372;-83
2022/11/26 05:46:40;;;;;;;10.88;8.68;;;;;;;;;;5117004;27;20484;-84
2022/11/26 05:49:07;;;;;;;11.25;8.52;;;;;;;;;;5123475;27;20379;-84
2022/11/26 05:51:33;;;;;;;12.95;8.88;;;;;;;;;;5116276;27;20372;-84
2022/11/26 05:53:59;;;;;;;11.13;8.00;;;;;;;;;;5112245;27;20391;-83
2022/11/26 05:56:25;;;;;;;11.75;8.43;;;;;;;;;;5132364;27;20398;-83
2022/11/26 05:58:51;;;;;;;9.85;7.97;;;;;;;;;;5118862;27;20376;-83
2022/11/26 06:01:17;;;;;;;9.93;7.73;;;;;;;;;;5118267;27;22299;-84
2022/11/26 06:03:43;;;;;;;10.25;8.13;;;;;;;;;;5100097;28;20375;-84
2022/11/26 06:06:09;;;;;;;10.15;8.20;;;;;;;;;;5129672;27;20386;-84
2022/11/26 06:08:35;;;;;;;10.15;7.95;;;;;;;;;;5131760;27;20393;-83
2022/11/26 06:11:01;;;;;;;10.18;8.45;;;;;;;;;;5126208;27;20446;-84
2022/11/26 06:13:27;;;;;;;8.65;7.72;;;;;;;;;;5120349;27;20376;-83
2022/11/26 06:15:53;;;;;;;9.18;7.60;;;;;;;;;;5108204;28;20442;-83
2022/11/26 06:18:19;;;;;;;8.80;7.55;;;;;;;;;;5118746;27;20585;-83
2022/11/26 06:20:45;;;;;;;11.60;9.48;;;;;;;;;;5098048;27;20460;-82
2022/11/26 06:23:11;;;;;;;11.97;10.13;;;;;;;;;;5114946;27;20372;-82
2022/11/26 06:25:39;;;;;;;14.77;12.82;;;;;;;;;;5101610;27;20365;-83
2022/11/26 06:28:05;;;;;;;10.93;9.77;;;;;;;;;;5123282;27;20388;-84
2022/11/26 06:30:31;;;;;;;10.95;9.68;;;;;;;;;;5122130;27;20388;-82
2022/11/26 06:32:57;;;;;;;9.95;8.80;;;;;;;;;;5125534;27;20374;-82
2022/11/26 06:35:23;;;;;;;11.32;8.95;;;;;;;;;;5126813;27;20410;-82
2022/11/26 06:37:49;;;;;;;10.68;9.45;;;;;;;;;;5124023;27;20798;-82
2022/11/26 06:40:16;;;;;;;10.05;9.00;;;;;;;;;;5127912;27;20384;-84
2022/11/26 06:42:42;;;;;;;10.13;8.57;;;;;;;;;;5115891;27;20379;-82
2022/11/26 06:45:08;;;;;;;10.13;8.23;;;;;;;;;;5136643;27;20381;-84
2022/11/26 06:47:34;;;;;;;10.63;8.20;;;;;;;;;;5135937;27;20782;-82
2022/11/26 06:50:00;;;;;;;9.23;8.02;;;;;;;;;;5118501;27;20374;-82
2022/11/26 06:52:26;;;;;;;8.65;7.70;;;;;;;;;;5141975;27;20381;-83
2022/11/26 06:54:52;;;;;;;9.95;7.97;;;;;;;;;;5126501;27;20440;-84
2022/11/26 06:57:18;;;;;;;8.50;7.60;;;;;;;;;;5126997;27;20393;-84
2022/11/26 06:59:44;;;;;;;8.80;7.90;;;;;;;;;;5136446;27;20378;-82
2022/11/26 07:02:10;;;;;;;9.13;8.23;;;;;;;;;;5129239;27;20369;-83
2022/11/26 07:04:36;;;;;;;9.30;8.40;;;;;;;;;;5129717;27;20427;-84
2022/11/26 07:07:02;;;;;;;8.45;7.70;;;;;;;;;;5137277;27;20777;-85
2022/11/26 07:09:28;;;;;;;9.20;8.30;;;;;;;;;;5127537;27;20373;-84
2022/11/26 07:11:54;;;;;;;9.23;8.32;;;;;;;;;;5136083;27;20377;-83
2022/11/26 07:14:21;;;;;;;8.57;7.78;;;;;;;;;;5136460;27;20427;-86
2022/11/26 07:16:47;;;;;;;8.95;8.15;;;;;;;;;;5136058;27;20394;-85
2022/11/26 07:19:13;;;;;;;9.02;8.23;;;;;;;;;;5130529;27;20937;-85
2022/11/26 07:21:39;;;;;;;9.20;8.30;;;;;;;;;;5128549;27;20441;-85
2022/11/26 07:24:05;;;;;;;8.50;7.72;;;;;;;;;;5136614;27;20802;-86
2022/11/26 07:26:31;;;;;;;9.20;8.30;;;;;;;;;;5135813;27;20418;-85
2022/11/26 07:28:57;;;;;;;8.90;8.13;;;;;;;;;;5136489;27;20367;-84
2022/11/26 07:31:23;;;;;;;9.35;8.48;;;;;;;;;;5136399;27;20713;-82
2022/11/26 07:33:50;;;;;;;9.60;8.70;;;;;;;;;;5136675;27;20382;-83
2022/11/26 07:36:20;;;;;;;9.38;8.57;;;;;;;;;;5137241;27;20418;-85
2022/11/26 07:38:46;;;;;;;8.40;7.50;;;;;;;;;;5128002;27;20414;-85
2022/11/26 07:41:13;;;;;;;7.38;6.35;;;;;;;;;;5132219;27;20379;-88
2022/11/26 07:43:40;;;;;;;8.07;6.68;;;;;;;;;;5123885;27;20385;-85
2022/11/26 07:46:07;;;;;;;9.18;6.70;;;;;;;;;;5135859;27;20390;-85
2022/11/26 07:48:34;;;;;;;9.10;7.78;;;;;;;;;;5136381;27;20367;-85
2022/11/26 07:51:00;;;;;;;8.38;7.40;;;;;;;;;;5130712;27;20501;-84
2022/11/26 07:53:30;;;;;;;8.48;7.55;;;;;;;;;;5118309;27;20432;-84
2022/11/26 07:55:57;;;;;;;9.40;7.60;;;;;;;;;;5136227;27;20434;-84
2022/11/26 07:58:23;;;;;;;7.55;6.55;;;;;;;;;;5136090;27;20378;-84
2022/11/26 08:00:49;;;;;;;7.13;6.17;;;;;;;;;;5135908;27;20414;-84
2022/11/26 08:03:15;;;;;;;6.57;5.93;;;;;;;;;;5116810;27;20386;-85
2022/11/26 08:05:42;;;;;;;6.63;5.90;;;;;;;;;;5136199;27;20408;-85
2022/11/26 08:08:08;;;;;;;6.80;6.10;;;;;;;;;;5123074;27;20376;-84
2022/11/26 08:10:34;;;;;;;6.90;6.03;;;;;;;;;;5134522;27;20382;-86
2022/11/26 08:13:00;;;;;;;7.17;6.47;;;;;;;;;;5135710;27;20869;-84
2022/11/26 08:15:26;;;;;;;7.07;6.38;;;;;;;;;;5114093;27;20406;-84
2022/11/26 08:17:55;;;;;;;7.15;6.45;;;;;;;;;;5135462;27;20423;-84
2022/11/26 08:20:21;;;;;;;7.80;6.60;;;;;;;;;;5135312;27;20375;-86
2022/11/26 08:22:47;;;;;;;7.97;7.18;;;;;;;;;;5135273;27;20394;-86
2022/11/26 08:25:13;;;;;;;10.23;8.27;;;;;;;;;;5135749;27;20879;-85
2022/11/26 08:27:39;;;;;;;9.50;6.90;;;;;;;;;;5135110;27;20374;-86
2022/11/26 08:30:06;;;;;;;11.38;9.18;;;;;;;;;;5133380;27;20739;-86
2022/11/26 08:32:32;;;;;;;11.25;9.02;;;;;;;;;;5130635;27;20466;-85
2022/11/26 08:34:58;;;;;;;10.65;8.88;;;;;;;;;;5135186;27;20504;-86
2022/11/26 08:37:24;;;;;;;10.48;8.75;;;;;;;;;;5133040;27;20478;-85
2022/11/26 08:39:50;;;;;;;10.40;8.88;;;;;;;;;;5134308;27;20859;-85
2022/11/26 08:42:16;;;;;;;10.52;8.88;;;;;;;;;;5116580;27;20378;-84
2022/11/26 08:44:42;;;;;;;9.65;8.52;;;;;;;;;;5134526;27;20382;-84
2022/11/26 08:47:08;;;;;;;10.07;8.90;;;;;;;;;;5133939;27;20473;-84
2022/11/26 08:49:34;;;;;;;9.77;8.70;;;;;;;;;;5134804;27;20426;-83
2022/11/26 08:52:00;;;;;;;9.77;8.75;;;;;;;;;;5134088;27;20386;-86
2022/11/26 08:54:26;;;;;;;10.75;8.63;;;;;;;;;;5134805;27;20378;-85
2022/11/26 08:56:53;;;;;;;9.35;8.32;;;;;;;;;;5130981;27;20511;-85
2022/11/26 08:59:21;;;;;;;10.27;8.73;;;;;;;;;;5134732;27;20440;-86
2022/11/26 09:01:47;;;;;;;10.05;8.88;;;;;;;;;;5134796;27;20740;-85
2022/11/26 09:04:13;;;;;;;9.45;8.55;;;;;;;;;;5134681;27;20414;-87
2022/11/26 09:06:40;;;;;;;9.38;8.48;;;;;;;;;;5134594;27;20382;-87
2022/11/26 09:09:13;;;;;;;8.88;8.07;;;;;;;;;;5127897;27;20367;-87
2022/11/26 09:11:40;;;;;;;8.63;7.55;;;;;;;;;;5135476;27;20378;-86
2022/11/26 09:14:06;;;;;;;7.80;7.10;;;;;;;;;;5134524;27;20374;-85
2022/11/26 09:16:32;;;;;;;7.85;7.15;;;;;;;;;;5134260;27;20447;-84
2022/11/26 09:19:01;;;;;;;7.88;7.18;;;;;;;;;;5129493;27;20459;-84
2022/11/26 09:21:27;;;;;;;7.50;6.65;;;;;;;;;;5124676;27;20866;-84
2022/11/26 09:23:54;;;;;;;8.38;7.68;;;;;;;;;;5134225;27;20380;-86
2022/11/26 09:26:20;;;;;;;9.10;8.13;;;;;;;;;;5128276;27;20399;-84
2022/11/26 09:28:50;;;;;;;10.23;9.23;;;;;;;;;;5121800;27;20381;-86
2022/11/26 09:31:16;;;;;;;12.93;11.63;;;;;;;;;;5130720;27;20393;-84
2022/11/26 09:33:43;;;;;;;11.25;10.05;;;;;;;;;;5133685;27;20893;-84
2022/11/26 09:36:10;;;;;;;10.32;9.02;;;;;;;;;;5116205;27;20793;-84
2022/11/26 09:38:37;;;;;;;11.57;10.23;;;;;;;;;;5135652;27;20375;-84
2022/11/26 09:41:21;;;;;;;11.65;10.48;;;;;;;;;;5133926;27;20870;-83
2022/11/26 09:44:02;;;;;;;16.63;13.05;;;;;;;;;;5140031;27;20544;-83
2022/11/26 09:46:32;;;;;;;9.82;8.82;;;;;;;;;;5140109;27;20391;-83
2022/11/26 09:48:59;;;;;;;8.55;7.75;;;;;;;;;;5135551;27;20379;-85
2022/11/26 09:51:25;;;;;;;8.35;7.47;;;;;;;;;;5115893;27;20844;-83
2022/11/26 09:53:52;;;;;;;8.00;7.20;;;;;;;;;;5134563;27;20366;-83
2022/11/26 09:56:25;;;;;;;7.90;7.18;;;;;;;;;;5134105;27;20395;-84
2022/11/26 09:59:00;;;;;;;8.05;6.88;;;;;;;;;;5133927;27;20478;-84
2022/11/26 10:01:26;;;;;;;7.93;7.13;;;;;;;;;;5135724;27;20385;-82
2022/11/26 10:03:53;;;;;;;7.68;6.97;;;;;;;;;;5133712;27;20499;-83
2022/11/26 10:06:37;;;;;;;6.53;5.93;;;;;;;;;;5133685;27;20374;-83
2022/11/26 10:09:03;;;;;;;6.97;6.20;;;;;;;;;;5121204;27;20383;-85
2022/11/26 10:11:35;;;;;;;13.23;7.45;;;;;;;;;;5133576;27;20379;-82
2022/11/26 10:14:20;;;;;;;7.57;6.88;;;;;;;;;;5115134;27;20387;-85
2022/11/26 10:16:55;;;;;;;10.67;7.50;;;;;;;;;;5133302;27;20445;-85
2022/11/26 10:19:28;;;;;;;9.48;8.52;;;;;;;;;;5115273;28;20370;-85
2022/11/26 10:21:55;;;;;;;9.60;7.80;;;;;;;;;;5133255;27;20472;-83
2022/11/26 10:24:35;;;;;;;10.32;8.63;;;;;;;;;;5133403;27;20883;-82
2022/11/26 10:27:09;;;;;;;11.45;8.63;;;;;;;;;;5133304;27;20379;-84
2022/11/26 10:29:35;;;;;;;14.20;10.68;;;;;;;;;;5132362;27;20382;-82
2022/11/26 10:32:06;;;;;;;14.63;11.07;;;;;;;;;;5135820;27;20466;-83
2022/11/26 10:34:37;;;;;;;15.55;11.32;;;;;;;;;;5133406;27;20374;-83
2022/11/26 10:37:03;;;;;;;14.65;10.93;;;;;;;;;;5133233;27;20398;-84
2022/11/26 10:39:29;;;;;;;20.73;13.75;;;;;;;;;;5133131;27;20366;-83
2022/11/26 10:41:55;;;;;;;15.97;12.40;;;;;;;;;;5133384;27;21039;-83
2022/11/26 10:44:29;;;;;;;22.33;15.07;;;;;;;;;;5133288;27;20445;-83
2022/11/26 10:46:55;;;;;;;22.33;16.17;;;;;;;;;;5133051;27;20383;-82
2022/11/26 10:49:23;;;;;;;24.23;16.88;;;;;;;;;;5133099;27;20373;-84
2022/11/26 10:51:50;;;;;;;33.50;21.38;;;;;;;;;;5114609;28;20466;-84
2022/11/26 10:54:27;;;;;;;29.42;18.70;;;;;;;;;;5133066;27;20851;-82
2022/11/26 10:56:54;;;;;;;36.05;21.85;;;;;;;;;;5133010;27;20402;-85
2022/11/26 10:59:20;;;;;;;40.92;24.02;;;;;;;;;;5132982;27;20387;-82
2022/11/26 11:01:47;;;;;;;33.10;21.35;;;;;;;;;;5117758;27;20369;-85
2022/11/26 11:04:34;;;;;;;41.13;25.52;;;;;;;;;;5133560;27;20397;-83
2022/11/26 11:07:00;;;;;;;41.78;25.40;;;;;;;;;;5132790;27;20370;-83
2022/11/26 11:09:26;;;;;;;44.75;26.80;;;;;;;;;;5124226;27;20443;-82
2022/11/26 11:12:10;;;;;;;49.75;28.52;;;;;;;;;;5132684;27;20382;-83
2022/11/26 11:14:36;;;;;;;47.53;28.35;;;;;;;;;;5132814;27;20431;-83
2022/11/26 11:17:03;;;;;;;45.60;27.63;;;;;;;;;;5132767;27;20406;-83
2022/11/26 11:19:29;;;;;;;52.42;29.13;;;;;;;;;;5133882;27;20708;-82
2022/11/26 11:21:55;;;;;;;52.87;31.03;;;;;;;;;;5136614;27;20370;-81
2022/11/26 11:24:22;;;;;;;63.88;33.25;;;;;;;;;;5136422;27;20423;-82
2022/11/26 11:26:52;;;;;;;55.83;32.63;;;;;;;;;;5136476;27;20458;-82
2022/11/26 11:29:35;;;;;;;60.55;32.75;;;;;;;;;;5136357;27;20859;-82
2022/11/26 11:32:03;;;;;;;61.13;32.10;;;;;;;;;;5136397;27;20378;-82
2022/11/26 11:34:31;;;;;;;54.47;30.38;;;;;;;;;;5136282;27;20379;-85
2022/11/26 11:37:05;;;;;;;52.08;30.80;;;;;;;;;;5136165;27;20494;-82
2022/11/26 11:39:35;;;;;;;51.80;29.83;;;;;;;;;;5136108;27;20371;-85
2022/11/26 11:42:02;;;;;;;42.92;25.13;;;;;;;;;;5136148;27;20768;-83
2022/11/26 11:44:35;;;;;;;24.58;16.92;;;;;;;;;;5136171;27;20430;-83
2022/11/26 11:47:07;;;;;;;20.67;14.93;;;;;;;;;;5136050;27;20443;-83
2022/11/26 11:49:50;;;;;;;22.95;13.95;;;;;;;;;;5136058;27;20375;-84
2022/11/26 11:52:18;;;;;;;19.95;13.52;;;;;;;;;;5136171;27;20370;-82
2022/11/26 11:54:47;;;;;;;15.37;11.60;;;;;;;;;;5136040;27;20462;-82
2022/11/26 11:57:28;;;;;;;13.70;10.63;;;;;;;;;;5135903;27;20413;-85
2022/11/26 12:00:11;;;;;;;16.27;10.20;;;;;;;;;;5135804;27;20431;-83
2022/11/26 12:02:55;;;;;;;14.00;9.10;;;;;;;;;;5135916;27;20887;-83
2022/11/26 12:05:42;;;;;;;12.77;9.20;;;;;;;;;;5135705;27;20375;-83
2022/11/26 12:08:14;;;;;;;14.10;9.18;;;;;;;;;;5076470;27;20384;-83
2022/11/26 12:10:46;;;;;;;13.73;8.07;;;;;;;;;;5132043;27;20457;-83
2022/11/26 12:13:13;;;;;;;11.88;8.27;;;;;;;;;;5135559;27;20387;-83
2022/11/26 12:15:50;;;;;;;17.35;9.55;;;;;;;;;;5135402;27;20442;-84
2022/11/26 12:18:21;;;;;;;10.73;7.90;;;;;;;;;;5135563;27;20383;-84
2022/11/26 12:20:50;;;;;;;11.57;8.07;;;;;;;;;;5135495;27;20367;-83
2022/11/26 12:23:37;;;;;;;12.07;8.73;;;;;;;;;;5135407;27;20379;-83
2022/11/26 12:26:27;;;;;;;14.40;7.88;;;;;;;;;;5136486;27;20744;-85
2022/11/26 12:28:59;;;;;;;10.70;8.35;;;;;;;;;;5124105;27;20388;-85
2022/11/26 12:31:36;;;;;;;10.95;7.97;;;;;;;;;;5137170;27;20734;-83
2022/11/26 12:34:07;;;;;;;10.30;7.78;;;;;;;;;;5130370;27;20415;-83
2022/11/26 12:36:50;;;;;;;11.02;7.28;;;;;;;;;;5116634;27;20404;-83
2022/11/26 12:39:19;;;;;;;11.52;8.50;;;;;;;;;;5128275;27;20389;-83
2022/11/26 12:41:49;;;;;;;13.57;9.68;;;;;;;;;;5134885;27;20374;-83
2022/11/26 12:44:18;;;;;;;12.40;9.43;;;;;;;;;;5135153;27;20382;-83
2022/11/26 12:46:52;;;;;;;13.15;9.50;;;;;;;;;;5134147;27;20387;-85
2022/11/26 12:49:35;;;;;;;15.30;9.35;;;;;;;;;;5134842;27;20374;-86
2022/11/26 12:52:06;;;;;;;11.73;7.68;;;;;;;;;;5134825;27;20374;-86
2022/11/26 12:54:46;;;;;;;12.50;8.55;;;;;;;;;;5134764;27;20385;-85
2022/11/26 12:57:17;;;;;;;10.55;8.63;;;;;;;;;;5134857;27;20414;-85
2022/11/26 12:59:46;;;;;;;11.43;7.70;;;;;;;;;;5134481;27;20371;-85
2022/11/26 13:02:15;;;;;;;7.40;6.30;;;;;;;;;;5119004;27;20770;-85
2022/11/26 13:04:41;;;;;;;9.10;6.65;;;;;;;;;;5130114;27;20378;-85
2022/11/26 13:07:20;;;;;;;7.57;5.97;;;;;;;;;;5125123;27;20382;-84
2022/11/26 13:09:55;;;;;;;6.88;4.65;;;;;;;;;;5126649;27;20383;-86
2022/11/26 13:12:24;;;;;;;6.03;4.20;;;;;;;;;;5142601;27;20380;-84
2022/11/26 13:15:08;;;;;;;7.68;4.68;;;;;;;;;;5126545;27;20756;-84
2022/11/26 13:17:41;;;;;;;7.35;4.50;;;;;;;;;;5134294;27;20398;-84
2022/11/26 13:20:07;;;;;;;6.10;3.40;;;;;;;;;;5137997;27;20379;-84
2022/11/26 13:22:49;;;;;;;4.70;3.00;;;;;;;;;;5143727;27;20442;-86
2022/11/26 13:25:21;;;;;;;8.70;3.97;;;;;;;;;;5143223;27;20820;-84
2022/11/26 13:27:59;;;;;;;5.70;3.35;;;;;;;;;;5146291;27;20386;-82
2022/11/26 13:30:25;;;;;;;4.90;2.80;;;;;;;;;;5148577;27;20370;-82
2022/11/26 13:32:51;;;;;;;5.88;3.70;;;;;;;;;;5139158;27;20728;-84
2022/11/26 13:35:29;;;;;;;7.03;3.20;;;;;;;;;;5136388;27;20433;-84
2022/11/26 13:38:01;;;;;;;5.60;3.03;;;;;;;;;;5135804;27;20404;-84
2022/11/26 13:40:27;;;;;;;5.50;3.58;;;;;;;;;;5135384;27;20390;-87
2022/11/26 13:43:14;;;;;;;7.95;3.90;;;;;;;;;;5134137;27;20832;-84
2022/11/26 13:45:49;;;;;;;7.05;3.67;;;;;;;;;;5130872;27;20386;-86
2022/11/26 13:48:19;;;;;;;6.43;3.03;;;;;;;;;;5134004;27;20431;-86
2022/11/26 13:50:58;;;;;;;6.25;3.08;;;;;;;;;;5133661;27;20867;-87
2022/11/26 13:53:24;;;;;;;7.33;3.60;;;;;;;;;;5133544;27;20896;-83
2022/11/26 13:55:52;;;;;;;5.03;3.25;;;;;;;;;;5133548;27;20398;-86
2022/11/26 13:58:23;;;;;;;6.30;3.78;;;;;;;;;;5133202;27;20450;-84
2022/11/26 14:00:49;;;;;;;7.30;3.45;;;;;;;;;;5127430;27;20479;-85
2022/11/26 14:03:34;;;;;;;6.43;3.70;;;;;;;;;;5127750;27;20438;-86
2022/11/26 14:06:00;;;;;;;9.07;3.38;;;;;;;;;;5133347;27;20389;-85
2022/11/26 14:08:34;;;;;;;6.38;3.42;;;;;;;;;;5122882;27;20389;-86
2022/11/26 14:11:00;;;;;;;6.35;3.20;;;;;;;;;;5132186;27;20385;-86
2022/11/26 14:13:26;;;;;;;6.40;3.23;;;;;;;;;;5127487;27;20371;-85
2022/11/26 14:15:54;;;;;;;8.20;3.07;;;;;;;;;;5133203;27;20824;-85
2022/11/26 14:18:40;;;;;;;6.03;2.63;;;;;;;;;;5132922;27;20727;-85
2022/11/26 14:21:06;;;;;;;6.93;3.90;;;;;;;;;;5133675;27;20382;-85
2022/11/26 14:23:41;;;;;;;6.63;3.30;;;;;;;;;;5125651;27;20733;-85
2022/11/26 14:26:11;;;;;;;6.13;2.50;;;;;;;;;;5130613;27;20367;-84
2022/11/26 14:28:37;;;;;;;7.43;4.60;;;;;;;;;;5123877;27;20468;-87
2022/11/26 14:31:20;;;;;;;6.82;4.78;;;;;;;;;;5120915;27;20974;-84
2022/11/26 14:33:46;;;;;;;8.80;4.97;;;;;;;;;;5122732;27;20375;-85
2022/11/26 14:36:22;;;;;;;10.00;4.50;;;;;;;;;;5114392;27;20402;-85
2022/11/26 14:39:04;;;;;;;7.57;4.40;;;;;;;;;;5132754;27;20382;-84
2022/11/26 14:41:54;;;;;;;9.02;4.47;;;;;;;;;;5131731;27;20375;-86